createdAt,value
2022-10-19T00:01:41.161Z,10.72
2022-10-19T00:04:08.854Z,10.67
2022-10-19T00:06:37.410Z,10.64
2022-10-19T00:09:06.376Z,10.66
2022-10-19T00:11:34.164Z,10.62
2022-10-19T00:14:01.429Z,10.57
2022-10-19T00:16:30.676Z,10.65
2022-10-19T00:18:58.433Z,10.65
2022-10-19T00:21:25.331Z,10.52
2022-10-19T00:23:53.565Z,10.60
2022-10-19T00:26:20.285Z,10.57
2022-10-19T00:28:47.026Z,10.50
2022-10-19T00:31:15.360Z,10.56
2022-10-19T00:33:43.045Z,10.52
2022-10-19T00:36:16.175Z,10.49
2022-10-19T00:38:42.777Z,10.32
2022-10-19T00:41:10.757Z,10.40
2022-10-19T00:43:52.122Z,10.44
2022-10-19T00:46:18.816Z,10.31
2022-10-19T00:48:45.524Z,10.35
2022-10-19T00:51:12.946Z,10.33
2022-10-19T00:53:39.737Z,10.33
2022-10-19T00:56:12.945Z,10.34
2022-10-19T00:58:42.665Z,10.26
2022-10-19T01:01:13.504Z,10.19
2022-10-19T01:03:40.519Z,10.12
2022-10-19T01:06:08.035Z,10.08
2022-10-19T01:08:34.684Z,9.91
2022-10-19T01:11:15.370Z,9.95
2022-10-19T01:13:50.949Z,9.90
2022-10-19T01:16:25.112Z,9.87
2022-10-19T01:18:58.905Z,9.84
2022-10-19T01:21:28.810Z,9.81
2022-10-19T01:24:23.548Z,9.62
2022-10-19T01:27:19.142Z,9.70
2022-10-19T01:30:16.171Z,9.69
2022-10-19T01:33:02.277Z,9.70
2022-10-19T01:35:36.379Z,9.66
2022-10-19T01:38:18.031Z,9.66
2022-10-19T01:40:51.273Z,9.62
2022-10-19T01:43:25.994Z,9.63
2022-10-19T01:45:58.289Z,9.61
2022-10-19T01:48:28.700Z,9.53
2022-10-19T01:50:59.799Z,9.57
2022-10-19T01:53:30.035Z,9.53
2022-10-19T01:55:59.700Z,9.54
2022-10-19T01:58:30.003Z,9.48
2022-10-19T02:01:02.278Z,9.51
2022-10-19T02:03:29.193Z,9.51
2022-10-19T02:05:57.579Z,9.50
2022-10-19T02:08:28.728Z,9.48
2022-10-19T02:10:56.466Z,9.37
2022-10-19T02:13:24.724Z,9.39
2022-10-19T02:15:54.353Z,9.35
2022-10-19T02:18:26.815Z,9.36
2022-10-19T02:20:53.433Z,9.34
2022-10-19T02:23:24.073Z,9.18
2022-10-19T02:25:50.762Z,9.10
2022-10-19T02:28:17.427Z,9.24
2022-10-19T02:30:44.055Z,9.08
2022-10-19T02:33:10.682Z,9.16
2022-10-19T02:35:38.869Z,9.13
2022-10-19T02:38:07.808Z,9.03
2022-10-19T02:40:39.585Z,8.97
2022-10-19T02:43:09.273Z,8.98
2022-10-19T02:45:40.318Z,8.93
2022-10-19T02:48:11.626Z,8.83
2022-10-19T02:50:43.599Z,8.79
2022-10-19T02:53:10.172Z,8.88
2022-10-19T02:55:36.742Z,8.83
2022-10-19T02:58:03.389Z,8.83
2022-10-19T03:00:29.895Z,8.71
2022-10-19T03:02:56.533Z,8.79
2022-10-19T03:05:23.054Z,8.79
2022-10-19T03:07:51.041Z,8.79
2022-10-19T03:10:17.656Z,8.78
2022-10-19T03:12:44.232Z,8.79
2022-10-19T03:15:14.963Z,8.69
2022-10-19T03:17:41.778Z,8.73
2022-10-19T03:20:09.263Z,8.71
2022-10-19T03:22:35.800Z,8.69
2022-10-19T03:25:03.976Z,8.68
2022-10-19T03:27:30.611Z,8.65
2022-10-19T03:29:57.267Z,8.62
2022-10-19T03:32:23.947Z,8.53
2022-10-19T03:34:50.440Z,8.60
2022-10-19T03:37:16.947Z,8.53
2022-10-19T03:39:43.472Z,8.61
2022-10-19T03:42:11.530Z,8.57
2022-10-19T03:44:37.998Z,8.52
2022-10-19T03:47:04.618Z,8.46
2022-10-19T03:49:31.099Z,8.38
2022-10-19T03:51:57.655Z,8.34
2022-10-19T03:54:27.297Z,8.33
2022-10-19T03:56:54.169Z,8.31
2022-10-19T03:59:22.024Z,8.31
2022-10-19T04:01:48.610Z,8.28
2022-10-19T04:04:18.609Z,8.23
2022-10-19T04:06:47.068Z,8.24
2022-10-19T04:09:15.859Z,8.23
2022-10-19T04:11:42.868Z,8.15
2022-10-19T04:14:15.898Z,8.12
2022-10-19T04:16:51.075Z,8.06
2022-10-19T04:19:17.594Z,7.98
2022-10-19T04:21:44.201Z,7.79
2022-10-19T04:24:13.622Z,7.84
2022-10-19T04:26:43.099Z,7.81
2022-10-19T04:29:10.309Z,7.76
2022-10-19T04:31:37.675Z,7.70
2022-10-19T04:34:06.432Z,7.53
2022-10-19T04:36:33.702Z,7.50
2022-10-19T04:39:00.250Z,7.38
2022-10-19T04:41:27.025Z,7.53
2022-10-19T04:43:57.954Z,7.53
2022-10-19T04:46:25.754Z,7.32
2022-10-19T04:48:52.465Z,7.47
2022-10-19T04:51:21.613Z,7.46
2022-10-19T04:53:48.565Z,7.42
2022-10-19T04:56:18.266Z,7.38
2022-10-19T04:58:45.420Z,7.25
2022-10-19T05:01:14.335Z,7.31
2022-10-19T05:03:40.935Z,7.31
2022-10-19T05:06:08.962Z,7.28
2022-10-19T05:08:37.729Z,7.28
2022-10-19T05:11:06.034Z,7.27
2022-10-19T05:13:32.900Z,7.24
2022-10-19T05:16:01.703Z,7.20
2022-10-19T05:18:28.428Z,7.14
2022-10-19T05:21:01.420Z,7.22
2022-10-19T05:23:28.130Z,7.24
2022-10-19T05:26:01.317Z,7.27
2022-10-19T05:28:28.252Z,7.23
2022-10-19T05:30:54.865Z,7.34
2022-10-19T05:33:21.641Z,7.15
2022-10-19T05:35:48.335Z,7.39
2022-10-19T05:38:14.897Z,7.38
2022-10-19T05:40:45.006Z,7.27
2022-10-19T05:43:13.010Z,7.34
2022-10-19T05:45:39.522Z,7.32
2022-10-19T05:48:06.218Z,7.36
2022-10-19T05:50:32.716Z,7.35
2022-10-19T05:52:59.471Z,7.38
2022-10-19T05:55:26.151Z,7.38
2022-10-19T05:57:52.715Z,7.37
2022-10-19T06:00:20.869Z,7.39
2022-10-19T06:02:47.720Z,7.29
2022-10-19T06:05:14.247Z,7.44
2022-10-19T06:07:40.852Z,7.48
2022-10-19T06:10:08.020Z,7.47
2022-10-19T06:12:34.558Z,7.43
2022-10-19T06:15:01.124Z,7.42
2022-10-19T06:17:29.522Z,7.36
2022-10-19T06:19:56.020Z,7.39
2022-10-19T06:22:22.592Z,7.45
2022-10-19T06:24:49.577Z,7.37
2022-10-19T06:27:16.188Z,7.34
2022-10-19T06:29:42.694Z,7.44
2022-10-19T06:32:09.325Z,7.49
2022-10-19T06:34:37.180Z,7.46
2022-10-19T06:37:03.785Z,7.47
2022-10-19T06:39:30.334Z,7.23
2022-10-19T06:41:56.925Z,7.37
2022-10-19T06:44:24.822Z,7.30
2022-10-19T06:46:51.397Z,7.27
2022-10-19T06:49:17.891Z,7.21
2022-10-19T06:51:45.803Z,7.17
2022-10-19T06:54:12.324Z,7.05
2022-10-19T06:56:38.943Z,7.14
2022-10-19T06:59:05.544Z,7.10
2022-10-19T07:01:32.901Z,7.04
2022-10-19T07:03:59.506Z,6.97
2022-10-19T07:06:27.291Z,7.08
2022-10-19T07:08:55.207Z,7.11
2022-10-19T07:11:22.025Z,7.11
2022-10-19T07:13:48.581Z,7.13
2022-10-19T07:16:20.738Z,7.14
2022-10-19T07:18:49.190Z,7.16
2022-10-19T07:21:16.608Z,7.19
2022-10-19T07:23:44.755Z,7.11
2022-10-19T07:26:14.891Z,7.19
2022-10-19T07:28:44.084Z,6.93
2022-10-19T07:31:13.059Z,7.24
2022-10-19T07:33:39.996Z,7.21
2022-10-19T07:36:08.825Z,7.26
2022-10-19T07:38:36.699Z,7.15
2022-10-19T07:41:05.667Z,7.25
2022-10-19T07:43:34.630Z,7.39
2022-10-19T07:46:02.896Z,7.12
2022-10-19T07:48:29.496Z,7.36
2022-10-19T07:50:56.218Z,7.31
2022-10-19T07:53:23.076Z,7.43
2022-10-19T07:55:49.582Z,7.55
2022-10-19T07:58:16.163Z,7.52
2022-10-19T08:00:44.118Z,7.60
2022-10-19T08:06:00.248Z,7.68
2022-10-19T08:08:27.399Z,7.83
2022-10-19T08:10:53.927Z,7.77
2022-10-19T08:13:20.777Z,7.89
2022-10-19T08:15:48.894Z,8.10
2022-10-19T08:18:15.431Z,8.17
2022-10-19T08:20:42.371Z,8.17
2022-10-19T08:23:08.963Z,8.21
2022-10-19T08:25:35.817Z,8.46
2022-10-19T08:28:02.384Z,8.42
2022-10-19T08:30:29.213Z,8.63
2022-10-19T08:32:57.410Z,8.74
2022-10-19T08:35:23.917Z,8.67
2022-10-19T08:37:50.724Z,8.95
2022-10-19T08:40:20.612Z,8.80
2022-10-19T08:42:55.350Z,9.02
2022-10-19T08:45:32.024Z,9.36
2022-10-19T08:48:10.318Z,9.49
2022-10-19T08:50:39.627Z,9.61
2022-10-19T08:53:12.368Z,9.74
2022-10-19T08:55:49.353Z,9.94
2022-10-19T08:58:35.953Z,9.93
2022-10-19T09:01:08.638Z,10.19
2022-10-19T09:04:01.296Z,10.35
2022-10-19T09:06:34.608Z,10.52
2022-10-19T09:09:01.608Z,10.58
2022-10-19T09:11:32.225Z,10.46
2022-10-19T09:14:06.609Z,10.90
2022-10-19T09:16:33.727Z,10.99
2022-10-19T09:19:02.543Z,11.17
2022-10-19T09:21:46.132Z,11.24
2022-10-19T09:24:27.799Z,11.35
2022-10-19T09:26:57.339Z,11.48
2022-10-19T09:29:29.486Z,11.49
2022-10-19T09:32:00.252Z,11.75
2022-10-19T09:34:33.603Z,11.64
2022-10-19T09:37:00.862Z,11.92
2022-10-19T09:39:29.915Z,12.08
2022-10-19T09:41:58.006Z,12.21
2022-10-19T09:44:26.475Z,12.27
2022-10-19T09:47:02.762Z,12.37
2022-10-19T09:49:41.870Z,12.48
2022-10-19T09:52:24.125Z,12.62
2022-10-19T09:54:58.723Z,12.69
2022-10-19T09:57:25.654Z,12.86
2022-10-19T09:59:52.460Z,12.92
2022-10-19T10:02:21.230Z,13.06
2022-10-19T10:04:55.648Z,13.17
2022-10-19T10:07:27.367Z,13.21
2022-10-19T10:09:54.051Z,13.43
2022-10-19T10:12:22.658Z,13.56
2022-10-19T10:14:50.690Z,13.66
2022-10-19T10:17:20.091Z,13.55
2022-10-19T10:20:03.035Z,13.38
2022-10-19T10:22:31.756Z,14.15
2022-10-19T10:24:58.468Z,14.13
2022-10-19T10:27:30.124Z,14.31
2022-10-19T10:32:29.134Z,14.44
2022-10-19T10:35:01.768Z,14.52
2022-10-19T10:37:35.142Z,14.65
2022-10-19T10:40:04.772Z,14.71
2022-10-19T10:42:37.463Z,14.93
2022-10-19T10:45:14.995Z,15.05
2022-10-19T10:47:43.482Z,15.19
2022-10-19T10:50:19.974Z,15.31
2022-10-19T10:52:57.612Z,15.47
2022-10-19T10:55:24.209Z,15.52
2022-10-19T10:57:54.407Z,15.61
2022-10-19T11:00:22.437Z,15.74
2022-10-19T11:02:53.866Z,15.75
2022-10-19T11:05:25.267Z,15.83
2022-10-19T11:07:56.533Z,15.86
2022-10-19T11:10:28.103Z,16.11
2022-10-19T11:12:59.231Z,16.20
2022-10-19T11:15:31.225Z,16.09
2022-10-19T11:18:11.407Z,16.15
2022-10-19T11:20:45.286Z,16.42
2022-10-19T11:23:19.182Z,16.46
2022-10-19T11:25:55.951Z,16.50
2022-10-19T11:28:37.695Z,16.50
2022-10-19T11:31:12.281Z,16.55
2022-10-19T11:33:50.537Z,16.61
2022-10-19T11:36:34.615Z,16.69
2022-10-19T11:39:18.670Z,16.72
2022-10-19T11:41:53.710Z,16.93
2022-10-19T11:44:36.855Z,17.03
2022-10-19T11:47:21.841Z,17.12
2022-10-19T11:50:01.026Z,17.14
2022-10-19T11:52:37.941Z,17.26
2022-10-19T11:55:14.999Z,17.35
2022-10-19T11:57:50.259Z,17.48
2022-10-19T12:00:39.071Z,17.59
2022-10-19T12:03:37.790Z,17.66
2022-10-19T12:06:15.099Z,17.73
2022-10-19T12:09:01.069Z,17.85
2022-10-19T12:11:45.410Z,17.97
2022-10-19T12:14:16.242Z,18.06
2022-10-19T12:16:47.246Z,18.10
2022-10-19T12:19:19.444Z,18.17
2022-10-19T12:21:47.346Z,18.23
2022-10-19T12:24:18.711Z,18.17
2022-10-19T12:26:46.872Z,18.29
2022-10-19T12:29:17.506Z,18.27
2022-10-19T12:31:44.941Z,18.24
2022-10-19T12:34:22.728Z,18.30
2022-10-19T12:36:55.603Z,18.30
2022-10-19T12:39:30.425Z,18.40
2022-10-19T12:42:03.163Z,18.45
2022-10-19T12:44:57.734Z,18.53
2022-10-19T12:47:26.014Z,18.58
2022-10-19T12:49:54.035Z,18.64
2022-10-19T12:52:42.759Z,18.74
2022-10-19T12:55:25.965Z,18.83
2022-10-19T12:58:19.674Z,18.90
2022-10-19T13:00:58.041Z,18.93
2022-10-19T13:03:29.852Z,19.02
2022-10-19T13:05:58.183Z,19.13
2022-10-19T13:08:28.702Z,19.18
2022-10-19T13:11:06.573Z,19.02
2022-10-19T13:13:56.361Z,19.13
2022-10-19T13:16:57.376Z,19.03
2022-10-19T13:19:24.230Z,19.13
2022-10-19T13:22:22.828Z,19.13
2022-10-19T13:25:23.970Z,19.25
2022-10-19T13:27:53.135Z,19.29
2022-10-19T13:31:03.420Z,19.32
2022-10-19T13:33:46.367Z,19.30
2022-10-19T13:36:13.758Z,19.25
2022-10-19T13:38:41.961Z,19.21
2022-10-19T13:41:15.025Z,19.11
2022-10-19T13:43:55.454Z,19.16
2022-10-19T13:46:36.841Z,19.05
2022-10-19T13:49:26.729Z,18.90
2022-10-19T13:52:09.107Z,18.94
2022-10-19T13:54:52.774Z,18.79
2022-10-19T13:57:29.821Z,18.84
2022-10-19T14:00:11.404Z,18.76
2022-10-19T14:03:05.368Z,18.55
2022-10-19T14:05:51.097Z,18.52
2022-10-19T14:08:33.289Z,18.33
2022-10-19T14:11:03.853Z,18.43
2022-10-19T14:13:31.203Z,18.35
2022-10-19T14:15:59.785Z,18.36
2022-10-19T14:18:28.347Z,18.39
2022-10-19T14:20:59.350Z,18.38
2022-10-19T14:23:27.926Z,18.34
2022-10-19T14:25:57.265Z,18.28
2022-10-19T14:28:24.778Z,18.25
2022-10-19T14:30:56.961Z,18.01
2022-10-19T14:33:32.964Z,18.17
2022-10-19T14:35:59.795Z,18.14
2022-10-19T14:38:31.986Z,18.13
2022-10-19T14:40:58.679Z,18.10
2022-10-19T14:43:26.936Z,18.03
2022-10-19T14:46:11.576Z,18.09
2022-10-19T14:48:41.393Z,18.04
2022-10-19T14:51:19.591Z,17.87
2022-10-19T14:53:49.240Z,17.86
2022-10-19T14:56:20.399Z,17.77
2022-10-19T14:58:52.398Z,17.72
2022-10-19T15:01:20.745Z,17.70
2022-10-19T15:03:49.801Z,17.59
2022-10-19T15:06:19.397Z,17.62
2022-10-19T15:08:49.218Z,17.30
2022-10-19T15:11:28.604Z,17.46
2022-10-19T15:14:02.041Z,17.38
2022-10-19T15:16:31.310Z,17.51
2022-10-19T15:19:02.898Z,17.50
2022-10-19T15:21:31.472Z,17.59
2022-10-19T15:24:08.582Z,17.62
2022-10-19T15:26:35.290Z,17.67
2022-10-19T15:29:09.734Z,17.76
2022-10-19T15:31:36.335Z,17.81
2022-10-19T15:34:04.679Z,17.56
2022-10-19T15:36:33.115Z,17.80
2022-10-19T15:39:11.819Z,17.65
2022-10-19T15:41:48.697Z,17.62
2022-10-19T15:44:31.885Z,17.48
2022-10-19T15:47:21.872Z,17.34
2022-10-19T15:49:55.219Z,17.24
2022-10-19T15:52:23.542Z,17.13
2022-10-19T15:54:50.430Z,17.02
2022-10-19T15:57:24.640Z,16.87
2022-10-19T15:59:51.220Z,16.67
2022-10-19T16:02:17.808Z,16.48
2022-10-19T16:04:44.366Z,16.41
2022-10-19T16:07:16.134Z,16.28
2022-10-19T16:09:42.729Z,16.15
2022-10-19T16:12:10.058Z,16.06
2022-10-19T16:14:36.887Z,15.94
2022-10-19T16:17:04.204Z,15.84
2022-10-19T16:19:30.779Z,15.73
2022-10-19T16:21:57.253Z,15.60
2022-10-19T16:24:25.181Z,15.49
2022-10-19T16:26:51.750Z,15.38
2022-10-19T16:29:18.386Z,15.17
2022-10-19T16:31:44.898Z,15.14
2022-10-19T16:34:11.623Z,15.02
2022-10-19T16:36:38.135Z,14.90
2022-10-19T16:39:04.704Z,14.77
2022-10-19T16:41:32.936Z,14.35
2022-10-19T16:43:59.502Z,14.50
2022-10-19T16:46:26.693Z,14.26
2022-10-19T16:48:53.513Z,14.11
2022-10-19T16:51:25.967Z,14.03
2022-10-19T16:53:54.797Z,13.94
2022-10-19T16:56:21.296Z,13.71
2022-10-19T16:58:49.554Z,13.70
2022-10-19T17:01:18.520Z,13.55
2022-10-19T17:03:46.764Z,13.45
2022-10-19T17:06:14.574Z,13.35
2022-10-19T17:09:23.289Z,13.24
2022-10-19T17:11:30.150Z,12.93
2022-10-19T17:14:00.148Z,13.02
2022-10-19T17:16:28.729Z,12.88
2022-10-19T17:18:56.667Z,12.82
2022-10-19T17:21:25.682Z,12.73
2022-10-19T17:23:53.843Z,12.66
2022-10-19T17:26:25.647Z,12.58
2022-10-19T17:28:52.300Z,12.46
2022-10-19T17:31:20.365Z,12.21
2022-10-19T17:33:47.246Z,12.27
2022-10-19T17:36:16.153Z,11.91
2022-10-19T17:38:42.737Z,12.08
2022-10-19T17:41:11.961Z,12.01
2022-10-19T17:43:40.357Z,11.97
2022-10-19T17:46:09.920Z,11.92
2022-10-19T17:48:40.729Z,11.75
2022-10-19T17:51:10.847Z,11.70
2022-10-19T17:53:37.413Z,11.42
2022-10-19T17:56:06.570Z,11.44
2022-10-19T17:58:36.377Z,11.46
2022-10-19T18:01:06.837Z,11.31
2022-10-19T18:03:34.971Z,11.32
2022-10-19T18:06:08.160Z,11.11
2022-10-19T18:08:39.666Z,11.19
2022-10-19T18:11:08.075Z,11.14
2022-10-19T18:13:38.674Z,11.10
2022-10-19T18:16:08.482Z,10.84
2022-10-19T18:18:38.101Z,11.00
2022-10-19T18:21:07.613Z,10.96
2022-10-19T18:23:34.603Z,10.92
2022-10-19T18:26:03.131Z,10.84
2022-10-19T18:28:30.234Z,10.88
2022-10-19T18:30:56.772Z,10.68
2022-10-19T18:33:23.275Z,10.74
2022-10-19T18:35:49.980Z,10.68
2022-10-19T18:38:17.833Z,10.62
2022-10-19T18:40:44.306Z,10.58
2022-10-19T18:43:10.805Z,10.37
2022-10-19T18:45:37.346Z,10.40
2022-10-19T18:48:04.081Z,10.44
2022-10-19T18:50:30.772Z,10.42
2022-10-19T18:52:57.361Z,10.33
2022-10-19T18:55:26.115Z,10.37
2022-10-19T18:57:52.629Z,10.34
2022-10-19T19:00:19.574Z,10.29
2022-10-19T19:02:52.713Z,10.24
2022-10-19T19:05:19.470Z,10.21
2022-10-19T19:07:46.355Z,10.09
2022-10-19T19:10:13.174Z,10.04
2022-10-19T19:12:41.798Z,10.00
2022-10-19T19:15:09.264Z,9.80
2022-10-19T19:17:36.571Z,9.89
2022-10-19T19:20:04.443Z,9.80
2022-10-19T19:22:31.162Z,9.76
2022-10-19T19:24:57.778Z,9.71
2022-10-19T19:27:27.209Z,9.67
2022-10-19T19:29:59.191Z,9.62
2022-10-19T19:32:26.319Z,9.57
2022-10-19T19:34:54.848Z,9.32
2022-10-19T19:37:21.651Z,9.48
2022-10-19T19:39:48.248Z,9.29
2022-10-19T19:42:14.746Z,9.39
2022-10-19T19:44:41.372Z,9.21
2022-10-19T19:47:09.480Z,9.28
2022-10-19T19:49:36.114Z,9.24
2022-10-19T19:52:02.872Z,9.21
2022-10-19T19:54:29.572Z,9.09
2022-10-19T19:56:56.116Z,9.14
2022-10-19T19:59:22.974Z,9.04
2022-10-19T20:01:49.515Z,9.02
2022-10-19T20:04:17.533Z,8.93
2022-10-19T20:06:44.072Z,8.98
2022-10-19T20:09:11.459Z,8.97
2022-10-19T20:11:42.138Z,9.04
2022-10-19T20:14:09.223Z,9.03
2022-10-19T20:16:35.902Z,8.92
2022-10-19T20:19:05.869Z,8.90
2022-10-19T20:21:33.890Z,8.78
2022-10-19T20:24:00.990Z,8.96
2022-10-19T20:26:28.362Z,8.88
2022-10-19T20:28:55.577Z,8.86
2022-10-19T20:31:22.575Z,8.84
2022-10-19T20:33:49.122Z,8.82
2022-10-19T20:36:17.662Z,8.78
2022-10-19T20:38:48.441Z,8.74
2022-10-19T20:41:15.053Z,8.70
2022-10-19T20:43:41.579Z,8.70
2022-10-19T20:46:12.992Z,8.66
2022-10-19T20:48:39.554Z,8.51
2022-10-19T20:51:16.980Z,8.59
2022-10-19T20:53:46.627Z,8.59
2022-10-19T20:56:14.945Z,8.53
2022-10-19T20:58:41.501Z,8.50
2022-10-19T21:01:09.517Z,8.53
2022-10-19T21:03:36.266Z,8.49
2022-10-19T21:06:04.938Z,8.29
2022-10-19T21:08:32.502Z,8.49
2022-10-19T21:11:00.430Z,8.45
2022-10-19T21:13:27.179Z,8.34
2022-10-19T21:15:53.800Z,8.29
2022-10-19T21:18:20.283Z,8.36
2022-10-19T21:20:46.853Z,8.40
2022-10-19T21:23:13.368Z,8.38
2022-10-19T21:25:39.885Z,8.35
2022-10-19T21:28:07.886Z,8.31
2022-10-19T21:30:36.366Z,8.19
2022-10-19T21:33:02.898Z,8.34
2022-10-19T21:35:29.386Z,8.27
2022-10-19T21:37:55.883Z,8.37
2022-10-19T21:40:22.378Z,8.22
2022-10-19T21:42:48.927Z,8.24
2022-10-19T21:45:29.988Z,8.33
2022-10-19T21:47:57.122Z,8.29
2022-10-19T21:50:23.728Z,8.27
2022-10-19T21:52:50.335Z,8.24
2022-10-19T21:55:16.873Z,8.22
2022-10-19T21:57:43.437Z,8.23
2022-10-19T22:00:11.058Z,8.20
2022-10-19T22:02:40.937Z,8.19
2022-10-19T22:05:08.072Z,8.15
2022-10-19T22:07:35.048Z,8.15
2022-10-19T22:10:01.745Z,8.15
2022-10-19T22:12:28.319Z,8.07
2022-10-19T22:14:54.823Z,8.17
2022-10-19T22:17:21.549Z,8.17
2022-10-19T22:19:50.781Z,8.17
2022-10-19T22:22:17.298Z,8.16
2022-10-19T22:24:43.814Z,8.03
2022-10-19T22:27:10.358Z,8.16
2022-10-19T22:29:36.869Z,8.10
2022-10-19T22:32:03.578Z,8.13
2022-10-19T22:34:30.081Z,8.19
2022-10-19T22:36:58.036Z,8.17
2022-10-19T22:39:27.753Z,8.26
2022-10-19T22:41:54.603Z,8.22
2022-10-19T22:44:21.359Z,8.18
2022-10-19T22:46:47.931Z,8.01
2022-10-19T22:49:14.431Z,8.06
2022-10-19T22:51:40.929Z,8.08
2022-10-19T22:54:08.819Z,8.06
2022-10-19T22:56:35.498Z,8.05
2022-10-19T22:59:05.131Z,8.00
2022-10-19T23:01:32.054Z,7.79
2022-10-19T23:03:58.674Z,7.73
2022-10-19T23:06:25.989Z,7.87
2022-10-19T23:08:52.595Z,7.84
2022-10-19T23:11:20.878Z,7.82
2022-10-19T23:13:47.353Z,7.81
2022-10-19T23:16:14.016Z,7.78
2022-10-19T23:18:41.327Z,7.74
2022-10-19T23:21:10.873Z,7.71
2022-10-19T23:23:37.624Z,7.64
2022-10-19T23:26:05.878Z,7.53
2022-10-19T23:28:36.419Z,7.73
2022-10-19T23:31:05.325Z,7.73
2022-10-19T23:33:32.419Z,7.80
2022-10-19T23:36:02.508Z,7.54
2022-10-19T23:38:29.123Z,7.66
2022-10-19T23:40:55.623Z,7.82
2022-10-19T23:43:22.335Z,7.85
2022-10-19T23:45:50.246Z,7.87
2022-10-19T23:48:16.735Z,7.85
2022-10-19T23:50:43.294Z,7.89
2022-10-19T23:53:09.877Z,7.71
2022-10-19T23:55:36.382Z,7.90
2022-10-19T23:58:03.457Z,7.79
